sensor_id;sensor_type;location;lat;lon;timestamp;pressure;altitude;pressure_sealevel;temperature;humidity
32933;BME280;19444;50.518;10.870;2023-07-24T00:00:27;95845.94;;;15.25;100.00
32933;BME280;19444;50.518;10.870;2023-07-24T00:03:24;95843.59;;;15.23;100.00
32933;BME280;19444;50.518;10.870;2023-07-24T00:06:21;95829.06;;;14.93;100.00
32933;BME280;19444;50.518;10.870;2023-07-24T00:09:18;95827.56;;;14.95;100.00
32933;BME280;19444;50.518;10.870;2023-07-24T00:12:15;95828.66;;;15.10;100.00
32933;BME280;19444;50.518;10.870;2023-07-24T00:15:12;95824.03;;;15.11;100.00
32933;BME280;19444;50.518;10.870;2023-07-24T00:18:09;95815.50;;;15.08;100.00
32933;BME280;19444;50.518;10.870;2023-07-24T00:21:05;95821.84;;;14.81;100.00
32933;BME280;19444;50.518;10.870;2023-07-24T00:24:03;95809.19;;;15.01;100.00
32933;BME280;19444;50.518;10.870;2023-07-24T00:27:00;95816.06;;;14.63;100.00
32933;BME280;19444;50.518;10.870;2023-07-24T00:29:57;95827.31;;;15.00;100.00
32933;BME280;19444;50.518;10.870;2023-07-24T00:32:54;95840.81;;;14.69;100.00
32933;BME280;19444;50.518;10.870;2023-07-24T00:35:54;95842.97;;;14.79;100.00
32933;BME280;19444;50.518;10.870;2023-07-24T00:38:51;95830.97;;;14.92;100.00
32933;BME280;19444;50.518;10.870;2023-07-24T00:41:48;95839.94;;;14.80;100.00
32933;BME280;19444;50.518;10.870;2023-07-24T00:44:45;95842.75;;;14.52;100.00
32933;BME280;19444;50.518;10.870;2023-07-24T00:47:43;95838.72;;;14.62;100.00
32933;BME280;19444;50.518;10.870;2023-07-24T00:50:43;95835.44;;;14.53;100.00
32933;BME280;19444;50.518;10.870;2023-07-24T00:53:40;95831.41;;;14.78;100.00
32933;BME280;19444;50.518;10.870;2023-07-24T00:56:37;95828.28;;;14.76;100.00
32933;BME280;19444;50.518;10.870;2023-07-24T00:59:34;95824.69;;;14.88;100.00
32933;BME280;19444;50.518;10.870;2023-07-24T01:02:32;95836.75;;;14.75;100.00
32933;BME280;19444;50.518;10.870;2023-07-24T01:05:30;95829.97;;;14.65;100.00
32933;BME280;19444;50.518;10.870;2023-07-24T01:08:28;95832.66;;;14.65;100.00
32933;BME280;19444;50.518;10.870;2023-07-24T01:11:30;95814.44;;;14.94;100.00
32933;BME280;19444;50.518;10.870;2023-07-24T01:17:32;95820.59;;;15.29;100.00
32933;BME280;19444;50.518;10.870;2023-07-24T01:20:35;95804.09;;;15.34;100.00
32933;BME280;19444;50.518;10.870;2023-07-24T01:26:50;95804.66;;;15.44;100.00
32933;BME280;19444;50.518;10.870;2023-07-24T01:29:47;95800.88;;;15.64;100.00
32933;BME280;19444;50.518;10.870;2023-07-24T01:32:44;95796.28;;;15.87;100.00
32933;BME280;19444;50.518;10.870;2023-07-24T01:35:42;95799.47;;;15.93;100.00
32933;BME280;19444;50.518;10.870;2023-07-24T01:38:40;95801.25;;;15.85;100.00
32933;BME280;19444;50.518;10.870;2023-07-24T01:41:38;95796.00;;;15.92;100.00
32933;BME280;19444;50.518;10.870;2023-07-24T01:44:35;95791.75;;;15.91;100.00
32933;BME280;19444;50.518;10.870;2023-07-24T01:47:32;95795.41;;;16.03;100.00
32933;BME280;19444;50.518;10.870;2023-07-24T01:50:29;95797.06;;;15.88;100.00
32933;BME280;19444;50.518;10.870;2023-07-24T01:53:26;95791.63;;;15.65;100.00
32933;BME280;19444;50.518;10.870;2023-07-24T01:56:23;95791.97;;;15.83;100.00
32933;BME280;19444;50.518;10.870;2023-07-24T01:59:20;95792.56;;;15.73;100.00
32933;BME280;19444;50.518;10.870;2023-07-24T02:02:17;95782.75;;;15.64;100.00
32933;BME280;19444;50.518;10.870;2023-07-24T02:05:14;95783.00;;;15.59;100.00
32933;BME280;19444;50.518;10.870;2023-07-24T02:08:11;95777.59;;;15.79;100.00
32933;BME280;19444;50.518;10.870;2023-07-24T02:11:08;95770.63;;;15.58;100.00
32933;BME280;19444;50.518;10.870;2023-07-24T02:14:05;95775.88;;;15.51;100.00
32933;BME280;19444;50.518;10.870;2023-07-24T02:17:02;95765.88;;;15.52;100.00
32933;BME280;19444;50.518;10.870;2023-07-24T02:19:58;95758.00;;;15.62;100.00
32933;BME280;19444;50.518;10.870;2023-07-24T02:22:56;95764.63;;;15.46;100.00
32933;BME280;19444;50.518;10.870;2023-07-24T02:25:52;95760.56;;;15.55;100.00
32933;BME280;19444;50.518;10.870;2023-07-24T02:28:50;95749.69;;;15.32;100.00
32933;BME280;19444;50.518;10.870;2023-07-24T02:31:46;95754.09;;;15.41;100.00
32933;BME280;19444;50.518;10.870;2023-07-24T02:34:43;95761.59;;;15.51;100.00
32933;BME280;19444;50.518;10.870;2023-07-24T02:37:40;95759.91;;;15.43;100.00
32933;BME280;19444;50.518;10.870;2023-07-24T02:40:37;95760.25;;;15.41;100.00
32933;BME280;19444;50.518;10.870;2023-07-24T02:43:37;95757.34;;;15.50;100.00
32933;BME280;19444;50.518;10.870;2023-07-24T02:46:34;95762.97;;;15.41;100.00
32933;BME280;19444;50.518;10.870;2023-07-24T02:49:31;95762.34;;;15.28;100.00
32933;BME280;19444;50.518;10.870;2023-07-24T02:52:28;95756.06;;;15.24;100.00
32933;BME280;19444;50.518;10.870;2023-07-24T02:55:25;95761.34;;;15.36;100.00
32933;BME280;19444;50.518;10.870;2023-07-24T02:58:22;95748.75;;;15.25;100.00
32933;BME280;19444;50.518;10.870;2023-07-24T03:01:19;95746.78;;;15.22;100.00
32933;BME280;19444;50.518;10.870;2023-07-24T03:04:16;95750.66;;;15.44;100.00
32933;BME280;19444;50.518;10.870;2023-07-24T03:07:13;95744.50;;;15.24;100.00
32933;BME280;19444;50.518;10.870;2023-07-24T03:10:09;95741.31;;;15.38;100.00
32933;BME280;19444;50.518;10.870;2023-07-24T03:13:06;95743.34;;;15.25;100.00
32933;BME280;19444;50.518;10.870;2023-07-24T03:16:04;95744.91;;;15.26;100.00
32933;BME280;19444;50.518;10.870;2023-07-24T03:19:01;95736.91;;;15.10;100.00
32933;BME280;19444;50.518;10.870;2023-07-24T03:21:58;95740.81;;;14.93;100.00
32933;BME280;19444;50.518;10.870;2023-07-24T03:24:54;95740.28;;;14.88;100.00
32933;BME280;19444;50.518;10.870;2023-07-24T03:27:51;95733.13;;;14.95;100.00
32933;BME280;19444;50.518;10.870;2023-07-24T03:30:48;95728.47;;;15.12;100.00
32933;BME280;19444;50.518;10.870;2023-07-24T03:33:45;95732.66;;;15.09;100.00
32933;BME280;19444;50.518;10.870;2023-07-24T03:36:42;95739.31;;;15.15;100.00
32933;BME280;19444;50.518;10.870;2023-07-24T03:39:39;95734.53;;;14.89;100.00
32933;BME280;19444;50.518;10.870;2023-07-24T03:42:36;95713.81;;;14.74;100.00
32933;BME280;19444;50.518;10.870;2023-07-24T03:45:33;95714.38;;;14.64;100.00
32933;BME280;19444;50.518;10.870;2023-07-24T03:48:30;95719.19;;;14.74;100.00
32933;BME280;19444;50.518;10.870;2023-07-24T03:51:27;95719.88;;;14.71;100.00
32933;BME280;19444;50.518;10.870;2023-07-24T03:54:24;95716.72;;;14.49;100.00
32933;BME280;19444;50.518;10.870;2023-07-24T03:57:21;95696.34;;;14.68;100.00
32933;BME280;19444;50.518;10.870;2023-07-24T04:00:18;95672.22;;;14.75;100.00
32933;BME280;19444;50.518;10.870;2023-07-24T04:03:15;95693.69;;;14.71;100.00
32933;BME280;19444;50.518;10.870;2023-07-24T04:06:13;95706.53;;;14.59;100.00
32933;BME280;19444;50.518;10.870;2023-07-24T04:09:09;95711.28;;;15.20;100.00
32933;BME280;19444;50.518;10.870;2023-07-24T04:12:11;95705.34;;;14.75;100.00
32933;BME280;19444;50.518;10.870;2023-07-24T04:15:08;95707.34;;;14.98;100.00
32933;BME280;19444;50.518;10.870;2023-07-24T04:18:05;95726.59;;;14.96;100.00
32933;BME280;19444;50.518;10.870;2023-07-24T04:21:03;95731.50;;;14.91;100.00
32933;BME280;19444;50.518;10.870;2023-07-24T04:24:00;95717.69;;;15.73;100.00
32933;BME280;19444;50.518;10.870;2023-07-24T04:26:59;95708.25;;;15.86;100.00
32933;BME280;19444;50.518;10.870;2023-07-24T04:29:56;95711.78;;;15.68;100.00
32933;BME280;19444;50.518;10.870;2023-07-24T04:32:53;95711.94;;;16.24;100.00
32933;BME280;19444;50.518;10.870;2023-07-24T04:35:50;95716.13;;;15.95;100.00
32933;BME280;19444;50.518;10.870;2023-07-24T04:38:47;95717.19;;;15.90;100.00
32933;BME280;19444;50.518;10.870;2023-07-24T04:41:44;95703.75;;;15.94;100.00
32933;BME280;19444;50.518;10.870;2023-07-24T04:44:41;95719.50;;;16.38;100.00
32933;BME280;19444;50.518;10.870;2023-07-24T04:47:38;95707.97;;;16.67;100.00
32933;BME280;19444;50.518;10.870;2023-07-24T04:50:35;95701.63;;;16.56;100.00
32933;BME280;19444;50.518;10.870;2023-07-24T04:53:32;95706.03;;;16.41;100.00
32933;BME280;19444;50.518;10.870;2023-07-24T04:56:29;95703.03;;;16.46;100.00
32933;BME280;19444;50.518;10.870;2023-07-24T04:59:27;95702.66;;;16.48;100.00
32933;BME280;19444;50.518;10.870;2023-07-24T05:02:23;95697.78;;;16.57;100.00
32933;BME280;19444;50.518;10.870;2023-07-24T05:05:20;95701.56;;;16.53;100.00
32933;BME280;19444;50.518;10.870;2023-07-24T05:08:17;95709.53;;;16.68;100.00
32933;BME280;19444;50.518;10.870;2023-07-24T05:11:14;95691.50;;;16.53;100.00
32933;BME280;19444;50.518;10.870;2023-07-24T05:14:11;95688.00;;;16.49;100.00
32933;BME280;19444;50.518;10.870;2023-07-24T05:17:08;95683.31;;;16.19;100.00
32933;BME280;19444;50.518;10.870;2023-07-24T05:20:06;95682.22;;;16.50;100.00
32933;BME280;19444;50.518;10.870;2023-07-24T05:23:04;95668.13;;;16.38;100.00
32933;BME280;19444;50.518;10.870;2023-07-24T05:26:03;95659.75;;;16.46;100.00
32933;BME280;19444;50.518;10.870;2023-07-24T05:29:00;95651.94;;;16.41;100.00
32933;BME280;19444;50.518;10.870;2023-07-24T05:31:57;95649.84;;;16.58;100.00
32933;BME280;19444;50.518;10.870;2023-07-24T05:34:55;95650.91;;;16.49;100.00
32933;BME280;19444;50.518;10.870;2023-07-24T05:37:52;95658.47;;;16.93;100.00
32933;BME280;19444;50.518;10.870;2023-07-24T05:40:55;95660.56;;;16.77;100.00
32933;BME280;19444;50.518;10.870;2023-07-24T05:43:52;95646.34;;;16.84;100.00
32933;BME280;19444;50.518;10.870;2023-07-24T05:46:49;95632.88;;;16.91;100.00
32933;BME280;19444;50.518;10.870;2023-07-24T05:49:46;95618.47;;;17.13;100.00
32933;BME280;19444;50.518;10.870;2023-07-24T05:52:43;95623.59;;;17.25;100.00
32933;BME280;19444;50.518;10.870;2023-07-24T05:55:40;95626.00;;;17.30;100.00
32933;BME280;19444;50.518;10.870;2023-07-24T05:58:37;95627.16;;;17.33;100.00
32933;BME280;19444;50.518;10.870;2023-07-24T06:01:34;95626.88;;;17.42;100.00
32933;BME280;19444;50.518;10.870;2023-07-24T06:04:31;95623.88;;;17.54;100.00
32933;BME280;19444;50.518;10.870;2023-07-24T06:07:28;95642.56;;;17.66;100.00
32933;BME280;19444;50.518;10.870;2023-07-24T06:10:25;95643.16;;;17.86;100.00
32933;BME280;19444;50.518;10.870;2023-07-24T06:13:22;95647.56;;;18.05;100.00
32933;BME280;19444;50.518;10.870;2023-07-24T06:16:19;95656.09;;;18.07;100.00
32933;BME280;19444;50.518;10.870;2023-07-24T06:19:16;95655.66;;;18.01;100.00
32933;BME280;19444;50.518;10.870;2023-07-24T06:22:14;95650.34;;;18.12;100.00
32933;BME280;19444;50.518;10.870;2023-07-24T06:25:10;95645.94;;;17.97;100.00
32933;BME280;19444;50.518;10.870;2023-07-24T06:28:07;95647.25;;;18.17;100.00
32933;BME280;19444;50.518;10.870;2023-07-24T06:31:04;95646.72;;;17.97;100.00
32933;BME280;19444;50.518;10.870;2023-07-24T06:34:01;95644.09;;;18.08;100.00
32933;BME280;19444;50.518;10.870;2023-07-24T06:36:58;95638.59;;;18.01;100.00
32933;BME280;19444;50.518;10.870;2023-07-24T06:40:12;95627.75;;;18.01;100.00
32933;BME280;19444;50.518;10.870;2023-07-24T06:43:09;95632.59;;;18.25;100.00
32933;BME280;19444;50.518;10.870;2023-07-24T06:46:06;95635.72;;;18.31;100.00
32933;BME280;19444;50.518;10.870;2023-07-24T06:49:03;95631.09;;;18.31;100.00
32933;BME280;19444;50.518;10.870;2023-07-24T06:52:00;95627.66;;;18.38;100.00
32933;BME280;19444;50.518;10.870;2023-07-24T06:54:57;95644.38;;;18.54;100.00
32933;BME280;19444;50.518;10.870;2023-07-24T06:57:55;95641.38;;;18.66;100.00
32933;BME280;19444;50.518;10.870;2023-07-24T07:00:52;95635.84;;;18.56;100.00
32933;BME280;19444;50.518;10.870;2023-07-24T07:03:49;95637.53;;;18.71;100.00
32933;BME280;19444;50.518;10.870;2023-07-24T07:06:46;95636.75;;;18.74;100.00
32933;BME280;19444;50.518;10.870;2023-07-24T07:09:44;95632.16;;;18.85;100.00
32933;BME280;19444;50.518;10.870;2023-07-24T07:12:41;95617.84;;;18.95;100.00
32933;BME280;19444;50.518;10.870;2023-07-24T07:15:38;95620.88;;;18.83;100.00
32933;BME280;19444;50.518;10.870;2023-07-24T07:18:35;95618.97;;;18.87;100.00
32933;BME280;19444;50.518;10.870;2023-07-24T07:21:31;95610.50;;;19.03;100.00
32933;BME280;19444;50.518;10.870;2023-07-24T07:24:28;95620.97;;;18.94;100.00
32933;BME280;19444;50.518;10.870;2023-07-24T07:27:25;95620.63;;;19.17;100.00
32933;BME280;19444;50.518;10.870;2023-07-24T07:30:22;95618.31;;;19.26;100.00
32933;BME280;19444;50.518;10.870;2023-07-24T07:33:19;95628.38;;;19.15;100.00
32933;BME280;19444;50.518;10.870;2023-07-24T07:36:20;95627.63;;;19.25;100.00
32933;BME280;19444;50.518;10.870;2023-07-24T07:39:19;95618.72;;;19.21;100.00
32933;BME280;19444;50.518;10.870;2023-07-24T07:42:16;95619.44;;;19.07;100.00
32933;BME280;19444;50.518;10.870;2023-07-24T07:45:15;95619.47;;;19.18;100.00
32933;BME280;19444;50.518;10.870;2023-07-24T07:48:11;95605.09;;;19.14;100.00
32933;BME280;19444;50.518;10.870;2023-07-24T07:51:08;95624.09;;;19.07;100.00
32933;BME280;19444;50.518;10.870;2023-07-24T07:54:05;95613.19;;;18.96;100.00
32933;BME280;19444;50.518;10.870;2023-07-24T07:57:04;95617.56;;;19.32;100.00
32933;BME280;19444;50.518;10.870;2023-07-24T08:00:05;95614.84;;;19.36;100.00
32933;BME280;19444;50.518;10.870;2023-07-24T08:03:02;95608.31;;;19.62;100.00
32933;BME280;19444;50.518;10.870;2023-07-24T08:06:00;95608.66;;;19.53;100.00
32933;BME280;19444;50.518;10.870;2023-07-24T08:08:57;95619.13;;;19.41;100.00
32933;BME280;19444;50.518;10.870;2023-07-24T08:11:54;95618.69;;;19.17;100.00
32933;BME280;19444;50.518;10.870;2023-07-24T08:14:51;95597.75;;;19.21;100.00
32933;BME280;19444;50.518;10.870;2023-07-24T08:17:48;95612.53;;;19.31;100.00
32933;BME280;19444;50.518;10.870;2023-07-24T08:20:45;95619.50;;;19.36;100.00
32933;BME280;19444;50.518;10.870;2023-07-24T08:23:42;95611.34;;;19.28;100.00
32933;BME280;19444;50.518;10.870;2023-07-24T08:26:39;95601.28;;;19.43;100.00
32933;BME280;19444;50.518;10.870;2023-07-24T08:29:36;95611.03;;;19.58;100.00
32933;BME280;19444;50.518;10.870;2023-07-24T08:32:34;95597.44;;;19.98;100.00
32933;BME280;19444;50.518;10.870;2023-07-24T08:35:31;95597.81;;;19.93;100.00
32933;BME280;19444;50.518;10.870;2023-07-24T08:38:28;95586.19;;;19.78;100.00
32933;BME280;19444;50.518;10.870;2023-07-24T08:41:26;95585.00;;;19.89;100.00
32933;BME280;19444;50.518;10.870;2023-07-24T08:44:23;95582.59;;;20.38;100.00
32933;BME280;19444;50.518;10.870;2023-07-24T08:47:22;95594.25;;;20.45;100.00
32933;BME280;19444;50.518;10.870;2023-07-24T08:50:20;95584.94;;;20.36;100.00
32933;BME280;19444;50.518;10.870;2023-07-24T08:53:19;95593.50;;;20.34;100.00
32933;BME280;19444;50.518;10.870;2023-07-24T08:56:17;95605.91;;;20.35;100.00
32933;BME280;19444;50.518;10.870;2023-07-24T08:59:14;95603.63;;;20.30;100.00
32933;BME280;19444;50.518;10.870;2023-07-24T09:02:11;95597.38;;;20.33;100.00
32933;BME280;19444;50.518;10.870;2023-07-24T09:05:09;95609.44;;;20.25;100.00
32933;BME280;19444;50.518;10.870;2023-07-24T09:08:06;95597.38;;;20.26;100.00
32933;BME280;19444;50.518;10.870;2023-07-24T09:11:05;95601.66;;;20.27;100.00
32933;BME280;19444;50.518;10.870;2023-07-24T09:14:02;95596.22;;;20.20;100.00
32933;BME280;19444;50.518;10.870;2023-07-24T09:17:10;95590.78;;;20.49;100.00
32933;BME280;19444;50.518;10.870;2023-07-24T09:20:08;95586.13;;;20.17;100.00
32933;BME280;19444;50.518;10.870;2023-07-24T09:23:05;95588.41;;;20.58;100.00
32933;BME280;19444;50.518;10.870;2023-07-24T09:26:06;95569.25;;;20.79;100.00
32933;BME280;19444;50.518;10.870;2023-07-24T09:29:04;95569.53;;;20.99;100.00
32933;BME280;19444;50.518;10.870;2023-07-24T09:32:01;95572.44;;;20.63;100.00
32933;BME280;19444;50.518;10.870;2023-07-24T09:34:58;95561.84;;;20.83;100.00
32933;BME280;19444;50.518;10.870;2023-07-24T09:38:09;95554.75;;;21.00;100.00
32933;BME280;19444;50.518;10.870;2023-07-24T09:41:07;95552.31;;;21.16;100.00
32933;BME280;19444;50.518;10.870;2023-07-24T09:44:07;95542.84;;;21.42;100.00
32933;BME280;19444;50.518;10.870;2023-07-24T09:47:04;95538.53;;;21.45;100.00
32933;BME280;19444;50.518;10.870;2023-07-24T09:50:21;95522.59;;;21.84;100.00
32933;BME280;19444;50.518;10.870;2023-07-24T09:56:41;95519.66;;;22.09;100.00
32933;BME280;19444;50.518;10.870;2023-07-24T09:59:52;95517.06;;;21.95;100.00
32933;BME280;19444;50.518;10.870;2023-07-24T10:02:50;95509.00;;;22.22;100.00
32933;BME280;19444;50.518;10.870;2023-07-24T10:05:48;95509.09;;;22.15;100.00
32933;BME280;19444;50.518;10.870;2023-07-24T10:08:47;95511.22;;;21.93;100.00
32933;BME280;19444;50.518;10.870;2023-07-24T10:11:44;95495.78;;;21.79;100.00
32933;BME280;19444;50.518;10.870;2023-07-24T10:14:44;95490.78;;;21.71;100.00
32933;BME280;19444;50.518;10.870;2023-07-24T10:17:42;95497.78;;;21.72;100.00
32933;BME280;19444;50.518;10.870;2023-07-24T10:20:41;95481.03;;;21.73;100.00
32933;BME280;19444;50.518;10.870;2023-07-24T10:23:45;95480.78;;;21.57;100.00
32933;BME280;19444;50.518;10.870;2023-07-24T10:26:45;95476.81;;;21.65;100.00
32933;BME280;19444;50.518;10.870;2023-07-24T10:29:42;95473.59;;;21.77;100.00
32933;BME280;19444;50.518;10.870;2023-07-24T10:32:48;95475.97;;;22.13;100.00
32933;BME280;19444;50.518;10.870;2023-07-24T10:35:54;95471.31;;;22.44;100.00
32933;BME280;19444;50.518;10.870;2023-07-24T10:38:59;95470.25;;;22.65;100.00
32933;BME280;19444;50.518;10.870;2023-07-24T10:42:09;95477.63;;;22.00;100.00
32933;BME280;19444;50.518;10.870;2023-07-24T10:45:08;95484.13;;;22.17;100.00
32933;BME280;19444;50.518;10.870;2023-07-24T10:48:06;95486.28;;;22.63;100.00
32933;BME280;19444;50.518;10.870;2023-07-24T10:51:08;95489.69;;;22.70;100.00
32933;BME280;19444;50.518;10.870;2023-07-24T10:54:05;95487.88;;;22.91;100.00
32933;BME280;19444;50.518;10.870;2023-07-24T10:57:03;95491.47;;;22.54;100.00
32933;BME280;19444;50.518;10.870;2023-07-24T11:00:00;95488.69;;;22.27;100.00
32933;BME280;19444;50.518;10.870;2023-07-24T11:02:57;95480.78;;;22.36;100.00
32933;BME280;19444;50.518;10.870;2023-07-24T11:05:54;95493.97;;;22.07;100.00
32933;BME280;19444;50.518;10.870;2023-07-24T11:08:55;95475.34;;;22.63;100.00
32933;BME280;19444;50.518;10.870;2023-07-24T11:11:53;95469.53;;;22.91;100.00
32933;BME280;19444;50.518;10.870;2023-07-24T11:14:52;95464.56;;;23.10;100.00
32933;BME280;19444;50.518;10.870;2023-07-24T11:17:52;95472.53;;;22.39;100.00
32933;BME280;19444;50.518;10.870;2023-07-24T11:20:55;95476.03;;;23.01;100.00
32933;BME280;19444;50.518;10.870;2023-07-24T11:23:55;95472.84;;;22.76;100.00
32933;BME280;19444;50.518;10.870;2023-07-24T11:26:52;95466.31;;;23.23;100.00
32933;BME280;19444;50.518;10.870;2023-07-24T11:29:50;95461.66;;;22.66;100.00
32933;BME280;19444;50.518;10.870;2023-07-24T11:32:47;95452.28;;;23.21;100.00
32933;BME280;19444;50.518;10.870;2023-07-24T11:35:45;95442.19;;;23.42;100.00
32933;BME280;19444;50.518;10.870;2023-07-24T11:38:45;95437.22;;;23.60;100.00
32933;BME280;19444;50.518;10.870;2023-07-24T11:41:42;95429.19;;;24.52;100.00
32933;BME280;19444;50.518;10.870;2023-07-24T11:44:40;95433.22;;;23.65;100.00
32933;BME280;19444;50.518;10.870;2023-07-24T11:47:48;95430.59;;;23.34;100.00
32933;BME280;19444;50.518;10.870;2023-07-24T11:50:50;95425.78;;;23.42;100.00
32933;BME280;19444;50.518;10.870;2023-07-24T11:53:47;95425.72;;;23.22;100.00
32933;BME280;19444;50.518;10.870;2023-07-24T11:56:44;95419.31;;;23.32;100.00
32933;BME280;19444;50.518;10.870;2023-07-24T11:59:41;95424.94;;;23.21;100.00
32933;BME280;19444;50.518;10.870;2023-07-24T12:02:38;95424.13;;;23.24;100.00
32933;BME280;19444;50.518;10.870;2023-07-24T12:05:43;95430.19;;;23.36;100.00
32933;BME280;19444;50.518;10.870;2023-07-24T12:08:44;95425.38;;;23.20;100.00
32933;BME280;19444;50.518;10.870;2023-07-24T12:11:44;95434.16;;;23.08;100.00
32933;BME280;19444;50.518;10.870;2023-07-24T12:14:42;95416.88;;;22.60;100.00
32933;BME280;19444;50.518;10.870;2023-07-24T12:17:40;95419.91;;;22.96;100.00
32933;BME280;19444;50.518;10.870;2023-07-24T12:20:37;95410.50;;;22.70;100.00
32933;BME280;19444;50.518;10.870;2023-07-24T12:23:34;95401.56;;;22.93;100.00
32933;BME280;19444;50.518;10.870;2023-07-24T12:26:31;95403.25;;;22.87;100.00
32933;BME280;19444;50.518;10.870;2023-07-24T12:29:28;95392.25;;;22.91;100.00
32933;BME280;19444;50.518;10.870;2023-07-24T12:32:25;95395.28;;;23.20;100.00
32933;BME280;19444;50.518;10.870;2023-07-24T12:35:22;95382.00;;;22.98;100.00
32933;BME280;19444;50.518;10.870;2023-07-24T12:38:19;95388.47;;;23.08;100.00
32933;BME280;19444;50.518;10.870;2023-07-24T12:41:16;95371.16;;;22.91;100.00
32933;BME280;19444;50.518;10.870;2023-07-24T12:44:13;95381.31;;;22.91;100.00
32933;BME280;19444;50.518;10.870;2023-07-24T12:47:11;95388.56;;;22.74;100.00
32933;BME280;19444;50.518;10.870;2023-07-24T12:50:09;95378.41;;;22.51;100.00
32933;BME280;19444;50.518;10.870;2023-07-24T12:53:06;95376.22;;;22.93;100.00
32933;BME280;19444;50.518;10.870;2023-07-24T12:56:08;95383.94;;;23.21;100.00
32933;BME280;19444;50.518;10.870;2023-07-24T12:59:06;95374.13;;;22.77;100.00
32933;BME280;19444;50.518;10.870;2023-07-24T13:02:03;95382.53;;;22.90;100.00
32933;BME280;19444;50.518;10.870;2023-07-24T13:05:00;95371.47;;;23.20;100.00
32933;BME280;19444;50.518;10.870;2023-07-24T13:07:57;95373.53;;;23.13;100.00
32933;BME280;19444;50.518;10.870;2023-07-24T13:10:54;95381.00;;;22.85;100.00
32933;BME280;19444;50.518;10.870;2023-07-24T13:13:51;95376.69;;;22.88;100.00
32933;BME280;19444;50.518;10.870;2023-07-24T13:16:48;95374.63;;;22.68;100.00
32933;BME280;19444;50.518;10.870;2023-07-24T13:19:45;95376.47;;;22.75;100.00
32933;BME280;19444;50.518;10.870;2023-07-24T13:22:42;95365.50;;;23.06;100.00
32933;BME280;19444;50.518;10.870;2023-07-24T13:25:43;95357.25;;;22.82;100.00
32933;BME280;19444;50.518;10.870;2023-07-24T13:28:40;95347.75;;;23.37;100.00
32933;BME280;19444;50.518;10.870;2023-07-24T13:31:37;95347.50;;;24.11;100.00
32933;BME280;19444;50.518;10.870;2023-07-24T13:34:37;95358.53;;;23.68;100.00
32933;BME280;19444;50.518;10.870;2023-07-24T13:37:34;95349.72;;;23.60;100.00
32933;BME280;19444;50.518;10.870;2023-07-24T13:40:31;95333.44;;;23.30;100.00
32933;BME280;19444;50.518;10.870;2023-07-24T13:43:29;95334.19;;;23.73;100.00
32933;BME280;19444;50.518;10.870;2023-07-24T13:46:26;95325.22;;;22.83;100.00
32933;BME280;19444;50.518;10.870;2023-07-24T13:49:23;95324.56;;;23.22;100.00
32933;BME280;19444;50.518;10.870;2023-07-24T13:52:20;95327.19;;;22.82;100.00
32933;BME280;19444;50.518;10.870;2023-07-24T13:55:18;95314.94;;;23.37;100.00
32933;BME280;19444;50.518;10.870;2023-07-24T13:58:14;95304.13;;;23.30;100.00
32933;BME280;19444;50.518;10.870;2023-07-24T14:01:11;95290.00;;;23.12;100.00
32933;BME280;19444;50.518;10.870;2023-07-24T14:04:08;95303.22;;;23.17;100.00
32933;BME280;19444;50.518;10.870;2023-07-24T14:07:06;95282.75;;;24.21;96.44
32933;BME280;19444;50.518;10.870;2023-07-24T14:10:03;95288.53;;;23.50;99.85
32933;BME280;19444;50.518;10.870;2023-07-24T14:13:00;95268.75;;;23.23;100.00
32933;BME280;19444;50.518;10.870;2023-07-24T14:15:57;95255.59;;;22.94;100.00
32933;BME280;19444;50.518;10.870;2023-07-24T14:18:54;95221.03;;;24.52;88.60
32933;BME280;19444;50.518;10.870;2023-07-24T14:21:51;95222.19;;;24.84;82.10
32933;BME280;19444;50.518;10.870;2023-07-24T14:24:48;95210.72;;;24.07;88.84
32933;BME280;19444;50.518;10.870;2023-07-24T14:27:45;95226.38;;;24.88;77.69
32933;BME280;19444;50.518;10.870;2023-07-24T14:30:41;95194.47;;;25.11;79.33
32933;BME280;19444;50.518;10.870;2023-07-24T14:33:38;95199.19;;;24.65;77.01
32933;BME280;19444;50.518;10.870;2023-07-24T14:36:35;95181.94;;;24.81;77.76
32933;BME280;19444;50.518;10.870;2023-07-24T14:39:32;95191.06;;;25.07;79.80
32933;BME280;19444;50.518;10.870;2023-07-24T14:42:29;95187.63;;;25.73;78.25
32933;BME280;19444;50.518;10.870;2023-07-24T14:45:26;95177.22;;;24.52;75.84
32933;BME280;19444;50.518;10.870;2023-07-24T14:48:23;95181.22;;;24.64;78.81
32933;BME280;19444;50.518;10.870;2023-07-24T14:51:20;95179.72;;;24.76;77.42
32933;BME280;19444;50.518;10.870;2023-07-24T14:54:17;95173.19;;;25.44;73.89
32933;BME280;19444;50.518;10.870;2023-07-24T14:57:14;95179.44;;;25.44;70.19
32933;BME280;19444;50.518;10.870;2023-07-24T15:00:21;95174.78;;;25.83;67.50
32933;BME280;19444;50.518;10.870;2023-07-24T15:03:18;95171.03;;;26.15;65.93
32933;BME280;19444;50.518;10.870;2023-07-24T15:06:15;95177.09;;;25.97;64.82
32933;BME280;19444;50.518;10.870;2023-07-24T15:09:12;95172.78;;;25.96;72.98
32933;BME280;19444;50.518;10.870;2023-07-24T15:12:09;95178.03;;;24.94;73.98
32933;BME280;19444;50.518;10.870;2023-07-24T15:15:07;95182.91;;;23.93;89.31
32933;BME280;19444;50.518;10.870;2023-07-24T15:18:04;95179.44;;;24.25;83.68
32933;BME280;19444;50.518;10.870;2023-07-24T15:21:01;95171.59;;;25.01;79.91
32933;BME280;19444;50.518;10.870;2023-07-24T15:23:57;95172.94;;;25.38;78.81
32933;BME280;19444;50.518;10.870;2023-07-24T15:26:54;95167.69;;;25.02;80.48